createdAt,value
2023-03-11T00:00:49.035Z,11.60
2023-03-11T00:03:29.113Z,12.20
2023-03-11T00:06:01.597Z,10.40
2023-03-11T00:08:30.268Z,11.90
2023-03-11T00:11:00.681Z,10.80
2023-03-11T00:13:30.028Z,13.00
2023-03-11T00:15:59.819Z,19.20
2023-03-11T00:18:31.419Z,10.50
2023-03-11T00:21:01.178Z,8.30
2023-03-11T00:23:30.295Z,8.60
2023-03-11T00:26:00.043Z,5.90
2023-03-11T00:28:28.345Z,7.50
2023-03-11T00:30:56.610Z,7.80
2023-03-11T00:33:24.965Z,4.90
2023-03-11T00:35:53.337Z,3.60
2023-03-11T00:38:22.097Z,5.70
2023-03-11T00:40:50.581Z,3.80
2023-03-11T00:43:19.032Z,5.80
2023-03-11T00:45:47.431Z,3.00
2023-03-11T00:48:16.765Z,5.00
2023-03-11T00:50:45.492Z,4.30
2023-03-11T00:53:13.864Z,2.80
2023-03-11T00:55:42.076Z,3.60
2023-03-11T00:58:13.239Z,5.10
2023-03-11T01:00:48.997Z,5.90
2023-03-11T01:03:17.275Z,6.00
2023-03-11T01:05:46.653Z,3.40
2023-03-11T01:08:14.863Z,2.40
2023-03-11T01:10:43.167Z,3.50
2023-03-11T01:13:11.403Z,4.20
2023-03-11T01:15:39.630Z,2.70
2023-03-11T01:18:07.858Z,3.40
2023-03-11T01:20:38.784Z,4.60
2023-03-11T01:23:08.398Z,8.40
2023-03-11T01:25:36.871Z,6.10
2023-03-11T01:28:08.380Z,10.20
2023-03-11T01:30:38.770Z,13.80
2023-03-11T01:33:08.699Z,11.10
2023-03-11T01:35:36.892Z,18.00
2023-03-11T01:38:05.087Z,15.50
2023-03-11T01:40:36.459Z,10.80
2023-03-11T01:43:39.823Z,10.80
2023-03-11T01:46:16.181Z,6.90
2023-03-11T01:48:57.145Z,3.90
2023-03-11T01:51:31.382Z,4.80
2023-03-11T01:54:04.133Z,7.20
2023-03-11T01:56:33.830Z,7.20
2023-03-11T01:59:03.101Z,6.70
2023-03-11T02:01:31.430Z,6.10
2023-03-11T02:04:00.092Z,4.10
2023-03-11T02:06:29.203Z,4.50
2023-03-11T02:08:57.985Z,4.80
2023-03-11T02:11:30.736Z,6.30
2023-03-11T02:14:03.631Z,4.70
2023-03-11T02:16:32.157Z,6.60
2023-03-11T02:19:13.721Z,7.80
2023-03-11T02:21:41.909Z,7.80
2023-03-11T02:24:23.717Z,7.90
2023-03-11T02:26:51.912Z,7.60
2023-03-11T02:29:22.384Z,7.90
2023-03-11T02:31:51.029Z,5.60
2023-03-11T02:34:25.092Z,5.60
2023-03-11T02:36:53.518Z,11.30
2023-03-11T02:39:38.186Z,15.00
2023-03-11T02:42:28.945Z,8.20
2023-03-11T02:45:07.323Z,8.70
2023-03-11T02:47:38.022Z,9.30
2023-03-11T02:50:11.214Z,5.70
2023-03-11T02:52:39.934Z,15.40
2023-03-11T02:55:10.115Z,21.00
2023-03-11T02:57:38.932Z,8.90
2023-03-11T03:00:16.817Z,5.60
2023-03-11T03:02:52.479Z,6.40
2023-03-11T03:05:22.825Z,7.90
2023-03-11T03:07:52.017Z,10.40
2023-03-11T03:10:22.359Z,11.00
2023-03-11T03:12:50.934Z,8.50
2023-03-11T03:15:19.374Z,9.70
2023-03-11T03:17:48.005Z,8.20
2023-03-11T03:20:16.274Z,12.40
2023-03-11T03:22:49.518Z,12.40
2023-03-11T03:25:18.714Z,11.20
2023-03-11T03:27:47.410Z,7.60
2023-03-11T03:30:16.270Z,6.00
2023-03-11T03:32:44.956Z,10.10
2023-03-11T03:35:15.598Z,14.90
2023-03-11T03:38:03.685Z,10.50
2023-03-11T03:40:32.753Z,9.00
2023-03-11T03:43:03.677Z,10.50
2023-03-11T03:45:32.151Z,10.60
2023-03-11T03:48:00.617Z,8.10
2023-03-11T03:50:29.470Z,10.90
2023-03-11T03:52:58.093Z,9.20
2023-03-11T03:55:26.675Z,9.90
2023-03-11T03:57:55.460Z,11.20
2023-03-11T04:00:25.819Z,18.40
2023-03-11T04:02:57.268Z,15.50
2023-03-11T04:05:42.879Z,12.00
2023-03-11T04:08:12.381Z,10.80
2023-03-11T04:10:40.763Z,10.70
2023-03-11T04:13:09.499Z,13.00
2023-03-11T04:15:39.609Z,11.80
2023-03-11T04:18:08.632Z,5.20
2023-03-11T04:20:39.223Z,5.00
2023-03-11T04:23:07.805Z,5.80
2023-03-11T04:25:36.290Z,3.50
2023-03-11T04:28:04.892Z,2.60
2023-03-11T04:30:33.838Z,3.90
2023-03-11T04:33:02.391Z,3.30
2023-03-11T04:35:31.509Z,1.80
2023-03-11T04:38:00.602Z,5.10
2023-03-11T04:40:29.098Z,2.90
2023-03-11T04:42:57.364Z,3.10
2023-03-11T04:45:26.216Z,3.80
2023-03-11T04:47:56.204Z,4.40
2023-03-11T04:50:24.811Z,4.10
2023-03-11T04:52:53.237Z,3.10
2023-03-11T04:55:21.862Z,3.30
2023-03-11T04:57:50.478Z,3.50
2023-03-11T05:00:23.152Z,4.10
2023-03-11T05:02:52.716Z,5.80
2023-03-11T05:05:20.978Z,7.20
2023-03-11T05:07:49.689Z,6.10
2023-03-11T05:10:22.650Z,4.90
2023-03-11T05:12:52.937Z,5.10
2023-03-11T05:15:21.595Z,4.90
2023-03-11T05:17:49.850Z,4.70
2023-03-11T05:20:18.605Z,4.10
2023-03-11T05:22:46.697Z,3.50
2023-03-11T05:25:15.188Z,7.00
2023-03-11T05:27:44.767Z,6.30
2023-03-11T05:30:15.302Z,6.10
2023-03-11T05:32:44.085Z,3.80
2023-03-11T05:35:13.586Z,5.60
2023-03-11T05:37:41.856Z,7.00
2023-03-11T05:40:12.331Z,3.60
2023-03-11T05:42:41.897Z,5.10
2023-03-11T05:45:11.079Z,3.40
2023-03-11T05:47:42.356Z,4.00
2023-03-11T05:50:12.824Z,3.50
2023-03-11T05:52:41.352Z,2.60
2023-03-11T05:55:12.284Z,6.10
2023-03-11T05:57:41.182Z,9.20
2023-03-11T06:00:13.211Z,6.70
2023-03-11T06:02:47.517Z,9.30
2023-03-11T06:05:17.935Z,8.30
2023-03-11T06:07:47.620Z,8.50
2023-03-11T06:10:16.041Z,6.30
2023-03-11T06:12:44.295Z,5.50
2023-03-11T06:15:20.842Z,9.50
2023-03-11T06:17:49.109Z,13.30
2023-03-11T06:20:18.141Z,8.00
2023-03-11T06:22:49.769Z,8.80
2023-03-11T06:25:18.451Z,8.30
2023-03-11T06:27:52.573Z,10.60
2023-03-11T06:30:21.357Z,10.50
2023-03-11T06:32:56.321Z,9.30
2023-03-11T06:35:24.773Z,9.70
2023-03-11T06:37:53.055Z,10.40
2023-03-11T06:40:21.296Z,9.50
2023-03-11T06:42:49.480Z,10.80
2023-03-11T06:45:20.531Z,11.40
2023-03-11T06:47:50.153Z,12.00
2023-03-11T06:50:18.640Z,10.90
2023-03-11T06:52:46.759Z,14.30
2023-03-11T06:55:15.186Z,18.10
2023-03-11T06:57:45.774Z,17.00
2023-03-11T07:00:14.992Z,12.30
2023-03-11T07:02:46.734Z,11.30
2023-03-11T07:05:16.134Z,8.20
2023-03-11T07:07:44.487Z,8.20
2023-03-11T07:10:12.747Z,6.50
2023-03-11T07:12:41.474Z,7.90
2023-03-11T07:15:10.301Z,6.20
2023-03-11T07:17:38.537Z,8.70
2023-03-11T07:20:07.622Z,7.20
2023-03-11T07:22:36.020Z,7.10
2023-03-11T07:25:04.440Z,8.00
2023-03-11T07:27:32.639Z,7.70
2023-03-11T07:30:02.541Z,8.20
2023-03-11T07:32:30.749Z,8.00
2023-03-11T07:34:59.001Z,7.70
2023-03-11T07:37:27.176Z,6.70
2023-03-11T07:39:55.687Z,7.20
2023-03-11T07:42:23.808Z,7.40
2023-03-11T07:44:54.161Z,8.40
2023-03-11T07:47:22.334Z,7.00
2023-03-11T07:49:50.508Z,6.60
2023-03-11T07:52:19.021Z,6.60
2023-03-11T07:54:47.423Z,6.40
2023-03-11T07:57:17.320Z,11.80
2023-03-11T07:59:45.410Z,8.50
2023-03-11T08:02:13.636Z,6.40
2023-03-11T08:04:41.828Z,4.90
2023-03-11T08:07:10.047Z,7.80
2023-03-11T08:09:38.191Z,5.10
2023-03-11T08:12:06.679Z,5.70
2023-03-11T08:14:34.741Z,5.70
2023-03-11T08:17:03.971Z,5.00
2023-03-11T08:19:32.205Z,4.90
2023-03-11T08:22:04.342Z,5.10
2023-03-11T08:24:32.596Z,6.50
2023-03-11T08:27:01.060Z,5.90
2023-03-11T08:29:29.264Z,6.60
2023-03-11T08:31:57.709Z,4.70
2023-03-11T08:34:27.737Z,5.10
2023-03-11T08:36:56.230Z,4.10
2023-03-11T08:39:24.453Z,4.40
2023-03-11T08:41:52.509Z,5.80
2023-03-11T08:44:20.834Z,6.10
2023-03-11T08:46:49.092Z,4.80
2023-03-11T08:49:17.281Z,4.60
2023-03-11T08:51:45.409Z,2.70
2023-03-11T08:54:13.640Z,7.70
2023-03-11T08:56:41.845Z,7.90
2023-03-11T08:59:10.232Z,5.40
2023-03-11T09:01:38.545Z,3.70
2023-03-11T09:04:06.783Z,1.80
2023-03-11T09:06:34.945Z,2.40
2023-03-11T09:09:03.995Z,4.70
2023-03-11T09:11:32.705Z,4.70
2023-03-11T09:14:00.839Z,5.30
2023-03-11T09:16:29.272Z,3.80
2023-03-11T09:19:00.394Z,3.10
2023-03-11T09:21:28.716Z,2.40
2023-03-11T09:23:56.846Z,2.60
2023-03-11T09:26:25.117Z,6.60
2023-03-11T09:28:53.386Z,4.30
2023-03-11T09:31:21.647Z,4.20
2023-03-11T09:33:52.563Z,5.20
2023-03-11T09:36:21.821Z,5.90
2023-03-11T09:38:50.088Z,2.30
2023-03-11T09:41:51.528Z,6.10
2023-03-11T09:44:47.975Z,2.50
2023-03-11T09:47:31.013Z,3.30
2023-03-11T09:50:31.213Z,4.80
2023-03-11T09:53:05.468Z,3.40
2023-03-11T09:55:46.720Z,2.80
2023-03-11T09:58:45.880Z,3.90
2023-03-11T10:01:16.813Z,5.10
2023-03-11T10:03:45.986Z,6.40
2023-03-11T10:06:19.932Z,6.20
2023-03-11T10:08:54.209Z,4.80
2023-03-11T10:11:54.565Z,6.10
2023-03-11T10:15:05.939Z,6.90
2023-03-11T10:17:39.868Z,5.50
2023-03-11T10:20:24.984Z,5.30
2023-03-11T10:22:53.841Z,8.50
2023-03-11T10:25:28.221Z,18.30
2023-03-11T10:28:05.531Z,8.20
2023-03-11T10:30:41.635Z,5.40
2023-03-11T10:33:12.773Z,3.10
2023-03-11T10:35:44.854Z,6.90
2023-03-11T10:38:27.940Z,3.50
2023-03-11T10:41:00.116Z,7.40
2023-03-11T10:43:39.604Z,5.70
2023-03-11T10:46:18.950Z,6.20
2023-03-11T10:48:47.231Z,8.80
2023-03-11T10:51:31.746Z,7.70
2023-03-11T10:54:02.528Z,8.80
2023-03-11T10:56:38.368Z,9.50
2023-03-11T10:59:30.784Z,9.40
2023-03-11T11:02:22.349Z,6.60
2023-03-11T11:05:03.500Z,11.80
2023-03-11T11:07:35.471Z,15.00
2023-03-11T11:10:12.625Z,8.40
2023-03-11T11:13:13.205Z,8.00
2023-03-11T11:15:51.700Z,3.90
2023-03-11T11:18:24.453Z,5.00
2023-03-11T11:21:07.901Z,4.90
2023-03-11T11:23:38.365Z,5.50
2023-03-11T11:26:17.646Z,7.40
2023-03-11T11:28:46.494Z,9.10
2023-03-11T11:31:26.670Z,9.40
2023-03-11T11:33:56.349Z,5.80
2023-03-11T11:36:29.788Z,4.90
2023-03-11T11:39:00.653Z,8.80
2023-03-11T11:41:30.800Z,9.20
2023-03-11T11:44:06.923Z,10.20
2023-03-11T11:46:40.718Z,9.80
2023-03-11T11:49:28.910Z,10.20
2023-03-11T11:52:09.162Z,9.10
2023-03-11T11:54:43.400Z,7.60
2023-03-11T11:57:16.916Z,10.00
2023-03-11T11:59:46.075Z,7.10
2023-03-11T12:02:32.823Z,8.30
2023-03-11T12:05:28.175Z,8.70
2023-03-11T12:08:22.241Z,7.50
2023-03-11T12:11:01.577Z,8.20
2023-03-11T12:13:41.734Z,8.00
2023-03-11T12:16:30.424Z,6.00
2023-03-11T12:19:11.371Z,4.40
2023-03-11T12:21:54.935Z,8.50
2023-03-11T12:24:43.397Z,9.00
2023-03-11T12:27:30.243Z,6.90
2023-03-11T12:30:05.193Z,4.10
2023-03-11T12:32:44.247Z,7.20
2023-03-11T12:35:24.617Z,5.80
2023-03-11T12:38:05.826Z,6.50
2023-03-11T12:41:09.484Z,8.50
2023-03-11T12:43:37.618Z,6.20
2023-03-11T12:46:10.635Z,7.50
2023-03-11T12:49:10.510Z,8.40
2023-03-11T12:51:40.159Z,7.60
2023-03-11T12:54:31.816Z,8.30
2023-03-11T12:57:08.316Z,7.10
2023-03-11T13:00:08.277Z,7.40
2023-03-11T13:02:50.337Z,9.10
2023-03-11T13:05:28.241Z,7.20
2023-03-11T13:08:19.847Z,6.60
2023-03-11T13:10:52.750Z,9.50
2023-03-11T13:13:30.386Z,6.20
2023-03-11T13:16:19.043Z,6.20
2023-03-11T13:18:49.156Z,12.20
2023-03-11T13:21:32.383Z,12.80
2023-03-11T13:24:18.780Z,17.40
2023-03-11T13:27:10.025Z,13.50
2023-03-11T13:30:04.526Z,8.40
2023-03-11T13:32:45.535Z,9.10
2023-03-11T13:35:58.884Z,14.70
2023-03-11T13:38:53.507Z,9.90
2023-03-11T13:41:29.581Z,8.60
2023-03-11T13:44:06.429Z,8.30
2023-03-11T13:46:40.358Z,8.30
2023-03-11T13:49:27.256Z,7.10
2023-03-11T13:51:57.506Z,4.20
2023-03-11T13:54:35.237Z,6.80
2023-03-11T13:57:04.066Z,9.40
2023-03-11T13:59:35.147Z,9.60
2023-03-11T14:02:18.404Z,8.80
2023-03-11T14:05:07.510Z,6.00
2023-03-11T14:07:37.800Z,4.90
2023-03-11T14:10:11.793Z,10.00
2023-03-11T14:12:40.103Z,8.50
2023-03-11T14:15:12.751Z,8.90
2023-03-11T14:17:40.985Z,12.60
2023-03-11T14:20:17.115Z,6.90
2023-03-11T14:22:47.627Z,10.50
2023-03-11T14:25:36.550Z,4.50
2023-03-11T14:28:07.024Z,6.40
2023-03-11T14:30:35.201Z,5.30
2023-03-11T14:33:06.547Z,5.00
2023-03-11T14:35:34.803Z,10.00
2023-03-11T14:38:02.945Z,4.20
2023-03-11T14:40:34.178Z,7.40
2023-03-11T14:43:06.618Z,7.90
2023-03-11T14:45:38.053Z,7.40
2023-03-11T14:48:24.963Z,11.90
2023-03-11T14:50:56.282Z,8.70
2023-03-11T14:53:34.982Z,15.50
2023-03-11T14:56:08.911Z,5.20
2023-03-11T14:58:47.626Z,12.30
2023-03-11T15:01:21.823Z,8.40
2023-03-11T15:03:59.589Z,10.50
2023-03-11T15:06:30.533Z,9.10
2023-03-11T15:09:03.855Z,11.80
2023-03-11T15:11:45.479Z,8.40
2023-03-11T15:14:19.605Z,7.20
2023-03-11T15:19:28.017Z,8.10
2023-03-11T15:22:01.414Z,9.40
2023-03-11T15:24:32.603Z,13.30
2023-03-11T15:27:08.737Z,14.30
2023-03-11T15:29:37.484Z,8.80
2023-03-11T15:32:44.768Z,8.30
2023-03-11T15:35:16.815Z,9.60
2023-03-11T15:37:47.478Z,7.50
2023-03-11T15:40:18.329Z,13.20
2023-03-11T15:42:47.174Z,12.60
2023-03-11T15:45:16.517Z,6.60
2023-03-11T15:47:46.864Z,9.80
2023-03-11T15:50:24.744Z,6.40
2023-03-11T15:52:56.495Z,6.80
2023-03-11T15:55:27.096Z,7.70
2023-03-11T15:58:06.963Z,7.20
2023-03-11T16:00:36.253Z,8.80
2023-03-11T16:03:04.753Z,8.90
2023-03-11T16:05:32.959Z,8.90
2023-03-11T16:08:01.222Z,9.50
2023-03-11T16:10:29.400Z,12.40
2023-03-11T16:12:57.585Z,15.50
2023-03-11T16:15:29.395Z,9.30
2023-03-11T16:17:59.701Z,10.40
2023-03-11T16:20:41.846Z,9.50
2023-03-11T16:23:50.240Z,4.30
2023-03-11T16:26:19.421Z,9.70
2023-03-11T16:28:47.585Z,9.50
2023-03-11T16:31:15.754Z,9.50
2023-03-11T16:33:43.885Z,8.40
2023-03-11T16:36:12.154Z,11.90
2023-03-11T16:38:48.196Z,15.30
2023-03-11T16:41:17.493Z,10.60
2023-03-11T16:43:45.775Z,13.10
2023-03-11T16:46:14.151Z,10.30
2023-03-11T16:48:42.413Z,6.10
2023-03-11T16:51:10.585Z,6.50
2023-03-11T16:53:38.696Z,9.80
2023-03-11T16:56:07.356Z,14.50
2023-03-11T16:58:35.525Z,10.20
2023-03-11T17:01:03.821Z,11.60
2023-03-11T17:03:41.135Z,9.50
2023-03-11T17:06:11.103Z,12.20
2023-03-11T17:08:39.353Z,15.80
2023-03-11T17:11:15.392Z,15.20
2023-03-11T17:13:43.957Z,12.30
2023-03-11T17:16:12.261Z,10.40
2023-03-11T17:18:40.490Z,13.50
2023-03-11T17:21:10.524Z,13.30
2023-03-11T17:23:39.115Z,6.70
2023-03-11T17:26:16.875Z,6.50
2023-03-11T17:28:45.396Z,7.60
2023-03-11T17:31:17.375Z,8.50
2023-03-11T17:33:45.949Z,7.60
2023-03-11T17:36:16.748Z,8.40
2023-03-11T17:38:47.054Z,7.50
2023-03-11T17:41:17.703Z,7.90
2023-03-11T17:43:46.245Z,7.50
2023-03-11T17:46:17.006Z,10.60
2023-03-11T17:48:47.400Z,10.00
2023-03-11T17:51:18.609Z,8.50
2023-03-11T17:53:47.808Z,7.70
2023-03-11T17:56:19.112Z,11.70
2023-03-11T17:58:48.585Z,11.90
2023-03-11T18:01:20.938Z,7.20
2023-03-11T18:03:49.872Z,9.00
2023-03-11T18:06:19.978Z,7.40
2023-03-11T18:08:48.503Z,9.40
2023-03-11T18:11:20.479Z,8.50
2023-03-11T18:13:49.075Z,11.60
2023-03-11T18:16:25.913Z,10.90
2023-03-11T18:18:56.156Z,8.60
2023-03-11T18:21:27.492Z,9.30
2023-03-11T18:23:57.484Z,9.40
2023-03-11T18:26:28.006Z,6.60
2023-03-11T18:28:58.439Z,6.80
2023-03-11T18:31:29.021Z,11.70
2023-03-11T18:34:05.253Z,11.90
2023-03-11T18:36:36.615Z,10.90
2023-03-11T18:39:05.776Z,5.30
2023-03-11T18:41:35.812Z,11.10
2023-03-11T18:44:04.716Z,13.30
2023-03-11T18:46:33.899Z,12.70
2023-03-11T18:49:03.926Z,14.10
2023-03-11T18:51:32.782Z,7.80
2023-03-11T18:54:02.134Z,7.40
2023-03-11T18:56:33.412Z,11.20
2023-03-11T18:59:01.738Z,10.90
2023-03-11T19:01:30.680Z,6.80
2023-03-11T19:04:00.117Z,8.50
2023-03-11T19:06:29.413Z,11.50
2023-03-11T19:09:00.606Z,9.40
2023-03-11T19:11:28.738Z,12.20
2023-03-11T19:13:57.441Z,10.10
2023-03-11T19:16:26.852Z,6.00
2023-03-11T19:18:55.713Z,8.50
2023-03-11T19:21:24.193Z,9.30
2023-03-11T19:23:55.154Z,9.40
2023-03-11T19:26:41.543Z,15.70
2023-03-11T19:29:13.767Z,9.10
2023-03-11T19:31:43.912Z,14.80
2023-03-11T19:34:12.796Z,13.20
2023-03-11T19:36:43.473Z,9.10
2023-03-11T19:39:11.698Z,12.50
2023-03-11T19:41:39.957Z,13.30
2023-03-11T19:44:10.481Z,8.10
2023-03-11T19:46:39.487Z,13.30
2023-03-11T19:49:07.865Z,7.00
2023-03-11T19:51:49.255Z,9.70
2023-03-11T19:54:18.887Z,6.20
2023-03-11T19:56:48.334Z,4.90
2023-03-11T19:59:17.382Z,7.60
2023-03-11T20:01:46.232Z,7.70
2023-03-11T20:04:15.473Z,5.20
2023-03-11T20:06:44.257Z,8.00
2023-03-11T20:09:13.458Z,7.70
2023-03-11T20:11:42.431Z,9.40
2023-03-11T20:14:11.736Z,5.60
2023-03-11T20:16:40.167Z,7.20
2023-03-11T20:19:08.453Z,5.70
2023-03-11T20:21:40.734Z,9.20
2023-03-11T20:24:10.345Z,9.90
2023-03-11T20:26:38.553Z,10.00
2023-03-11T20:29:06.973Z,9.20
2023-03-11T20:31:36.636Z,8.30
2023-03-11T20:34:05.574Z,9.70
2023-03-11T20:36:34.653Z,9.70
2023-03-11T20:39:06.104Z,11.60
2023-03-11T20:41:38.695Z,12.00
2023-03-11T20:44:09.509Z,11.00
2023-03-11T20:46:37.781Z,11.60
2023-03-11T20:49:07.095Z,8.50
2023-03-11T20:51:35.429Z,9.30
2023-03-11T20:54:03.796Z,10.30
2023-03-11T20:56:32.283Z,24.10
2023-03-11T20:59:01.088Z,15.60
2023-03-11T21:01:31.143Z,13.20
2023-03-11T21:04:02.209Z,7.00
2023-03-11T21:06:32.092Z,6.20
2023-03-11T21:09:05.058Z,5.70
2023-03-11T21:11:33.644Z,6.90
2023-03-11T21:14:01.894Z,5.40
2023-03-11T21:16:31.078Z,4.30
2023-03-11T21:19:01.543Z,5.00
2023-03-11T21:21:30.040Z,6.70
2023-03-11T21:23:58.374Z,8.20
2023-03-11T21:26:26.818Z,5.90
2023-03-11T21:28:55.699Z,6.30
2023-03-11T21:31:28.560Z,5.40
2023-03-11T21:34:01.206Z,5.30
2023-03-11T21:36:30.334Z,4.60
2023-03-11T21:38:58.628Z,4.00
2023-03-11T21:41:28.116Z,4.80
2023-03-11T21:43:57.607Z,5.60
2023-03-11T21:46:30.298Z,3.70
2023-03-11T21:49:00.091Z,5.80
2023-03-11T21:51:29.160Z,6.80
2023-03-11T21:53:57.656Z,7.00
2023-03-11T21:56:26.116Z,8.30
2023-03-11T21:58:54.430Z,7.80
2023-03-11T22:01:23.290Z,5.70
2023-03-11T22:03:51.846Z,4.00
2023-03-11T22:06:20.180Z,5.50
2023-03-11T22:08:49.244Z,10.90
2023-03-11T22:11:19.507Z,7.50
2023-03-11T22:13:51.343Z,6.50
2023-03-11T22:16:21.445Z,8.00
2023-03-11T22:18:50.553Z,8.20
2023-03-11T22:21:20.923Z,7.40
2023-03-11T22:23:49.362Z,9.60
2023-03-11T22:26:17.589Z,7.30
2023-03-11T22:28:45.819Z,8.10
2023-03-11T22:31:15.515Z,8.50
2023-03-11T22:33:43.936Z,5.50
2023-03-11T22:36:12.300Z,6.70
2023-03-11T22:38:42.344Z,7.80
2023-03-11T22:41:11.146Z,4.90
2023-03-11T22:43:40.318Z,10.20
2023-03-11T22:46:08.593Z,10.30
2023-03-11T22:48:36.752Z,6.20
2023-03-11T22:51:05.619Z,7.50
2023-03-11T22:53:33.888Z,8.40
2023-03-11T22:56:07.709Z,5.90
2023-03-11T22:58:35.800Z,6.80
2023-03-11T23:01:05.156Z,4.70
2023-03-11T23:03:34.524Z,6.30
2023-03-11T23:06:06.030Z,6.20
2023-03-11T23:08:35.212Z,8.20
2023-03-11T23:11:06.574Z,8.00
2023-03-11T23:13:37.603Z,7.80
2023-03-11T23:16:28.217Z,7.50
2023-03-11T23:18:56.689Z,5.00
2023-03-11T23:21:29.471Z,5.30
2023-03-11T23:24:00.624Z,6.20
2023-03-11T23:26:30.164Z,9.70
2023-03-11T23:28:58.592Z,5.50
2023-03-11T23:31:27.837Z,4.90
2023-03-11T23:33:56.530Z,5.80
2023-03-11T23:36:27.678Z,8.10
2023-03-11T23:38:55.934Z,7.20
2023-03-11T23:41:24.267Z,6.30
2023-03-11T23:43:52.439Z,5.70
2023-03-11T23:46:20.707Z,7.00
2023-03-11T23:48:48.864Z,5.90
2023-03-11T23:51:16.990Z,6.10
2023-03-11T23:53:45.257Z,6.60
2023-03-11T23:56:17.210Z,6.50
2023-03-11T23:58:46.698Z,5.50
